createdAt,value
2019-01-09T00:01:43.260Z,84.22
2019-01-09T00:04:09.573Z,84.34
2019-01-09T00:06:35.880Z,83.63
2019-01-09T00:09:06.099Z,83.57
2019-01-09T00:11:32.629Z,84.22
2019-01-09T00:13:59.246Z,84.00
2019-01-09T00:16:25.808Z,83.98
2019-01-09T00:18:52.585Z,84.88
2019-01-09T00:21:18.889Z,84.26
2019-01-09T00:23:45.491Z,84.47
2019-01-09T00:26:12.795Z,84.21
2019-01-09T00:28:39.241Z,84.78
2019-01-09T00:31:05.661Z,83.95
2019-01-09T00:33:32.260Z,83.39
2019-01-09T00:35:58.830Z,83.34
2019-01-09T00:38:25.153Z,83.27
2019-01-09T00:40:51.476Z,84.23
2019-01-09T00:43:17.817Z,83.42
2019-01-09T00:45:44.157Z,83.86
2019-01-09T00:48:10.548Z,84.14
2019-01-09T00:50:37.123Z,83.54
2019-01-09T00:53:03.803Z,83.10
2019-01-09T00:55:30.248Z,83.38
2019-01-09T00:57:56.580Z,83.60
2019-01-09T01:00:23.102Z,84.24
2019-01-09T01:03:03.625Z,83.93
2019-01-09T01:05:47.647Z,83.74
2019-01-09T01:08:34.075Z,84.00
2019-01-09T01:11:32.871Z,84.49
2019-01-09T01:14:22.299Z,85.18
2019-01-09T01:17:21.295Z,84.74
2019-01-09T01:20:20.045Z,83.54
2019-01-09T01:23:06.369Z,84.06
2019-01-09T01:25:47.652Z,84.87
2019-01-09T01:28:40.266Z,84.78
2019-01-09T01:31:30.706Z,84.80
2019-01-09T01:34:08.456Z,85.20
2019-01-09T01:37:01.707Z,85.30
2019-01-09T01:39:48.798Z,84.58
2019-01-09T01:42:48.103Z,84.94
2019-01-09T01:45:28.536Z,85.15
2019-01-09T01:48:39.013Z,85.03
2019-01-09T01:51:37.583Z,85.44
2019-01-09T01:54:31.813Z,85.10
2019-01-09T01:57:06.604Z,84.70
2019-01-09T01:59:41.608Z,84.95
2019-01-09T02:02:31.838Z,84.54
2019-01-09T02:05:09.618Z,85.06
2019-01-09T02:08:11.720Z,84.95
2019-01-09T02:10:59.998Z,84.67
2019-01-09T02:13:35.226Z,85.53
2019-01-09T02:16:29.506Z,84.66
2019-01-09T02:19:13.116Z,85.31
2019-01-09T02:21:45.241Z,84.99
2019-01-09T02:24:22.813Z,85.15
2019-01-09T02:27:21.329Z,85.10
2019-01-09T02:30:26.267Z,85.56
2019-01-09T02:32:52.873Z,85.27
2019-01-09T02:35:19.477Z,85.73
2019-01-09T02:37:45.784Z,85.63
2019-01-09T02:40:12.131Z,85.36
2019-01-09T02:42:38.422Z,85.97
2019-01-09T02:45:05.219Z,85.67
2019-01-09T02:47:31.910Z,86.08
2019-01-09T02:49:58.513Z,85.97
2019-01-09T02:52:25.129Z,86.51
2019-01-09T02:54:51.706Z,86.71
2019-01-09T02:57:17.999Z,86.46
2019-01-09T02:59:44.591Z,86.53
2019-01-09T03:02:11.824Z,85.96
2019-01-09T03:04:38.123Z,86.37
2019-01-09T03:07:04.441Z,85.94
2019-01-09T03:09:30.991Z,85.27
2019-01-09T03:11:57.608Z,84.76
2019-01-09T03:14:23.924Z,85.89
2019-01-09T03:16:50.272Z,86.01
2019-01-09T03:19:16.603Z,85.64
2019-01-09T03:21:43.203Z,85.95
2019-01-09T03:24:09.544Z,85.72
2019-01-09T03:26:36.123Z,85.81
2019-01-09T03:29:02.559Z,85.85
2019-01-09T03:31:28.876Z,85.70
2019-01-09T03:33:55.205Z,85.35
2019-01-09T03:36:21.538Z,86.16
2019-01-09T03:38:47.861Z,85.66
2019-01-09T03:41:14.438Z,86.09
2019-01-09T03:43:41.022Z,85.56
2019-01-09T03:46:07.549Z,85.21
2019-01-09T03:48:33.879Z,86.07
2019-01-09T03:51:00.232Z,85.90
2019-01-09T03:53:26.780Z,85.74
2019-01-09T03:55:53.135Z,86.19
2019-01-09T03:58:19.692Z,85.06
2019-01-09T04:00:46.038Z,84.64
2019-01-09T04:03:12.366Z,85.22
2019-01-09T04:05:38.696Z,85.06
2019-01-09T04:08:05.278Z,85.28
2019-01-09T04:10:31.842Z,85.17
2019-01-09T04:12:58.447Z,85.12
2019-01-09T04:15:25.026Z,84.73
2019-01-09T04:17:51.628Z,84.68
2019-01-09T04:20:17.946Z,85.04
2019-01-09T04:22:44.271Z,84.86
2019-01-09T04:25:10.644Z,85.11
2019-01-09T04:27:36.971Z,85.05
2019-01-09T04:30:05.592Z,84.78
2019-01-09T04:32:32.301Z,84.81
2019-01-09T04:34:58.621Z,85.08
2019-01-09T04:37:24.939Z,85.21
2019-01-09T04:39:51.482Z,85.10
2019-01-09T04:42:17.825Z,84.79
2019-01-09T04:44:44.146Z,84.68
2019-01-09T04:47:10.482Z,85.41
2019-01-09T04:49:37.063Z,84.88
2019-01-09T04:52:03.383Z,85.27
2019-01-09T04:54:30.098Z,85.00
2019-01-09T04:56:56.746Z,85.31
2019-01-09T04:59:23.367Z,85.08
2019-01-09T05:01:50.047Z,85.36
2019-01-09T05:04:16.664Z,85.48
2019-01-09T05:06:43.012Z,85.36
2019-01-09T05:09:09.599Z,85.56
2019-01-09T05:11:35.938Z,85.64
2019-01-09T05:14:02.238Z,84.98
2019-01-09T05:16:28.940Z,85.44
2019-01-09T05:18:55.517Z,86.45
2019-01-09T05:21:21.870Z,85.57
2019-01-09T05:23:48.412Z,85.81
2019-01-09T05:26:15.048Z,86.15
2019-01-09T05:28:41.490Z,86.08
2019-01-09T05:31:08.909Z,85.96
2019-01-09T05:33:35.297Z,85.92
2019-01-09T05:36:01.882Z,86.15
2019-01-09T05:38:28.245Z,85.89
2019-01-09T05:40:54.675Z,86.11
2019-01-09T05:43:21.275Z,84.97
2019-01-09T05:45:47.652Z,85.77
2019-01-09T05:48:14.084Z,85.94
2019-01-09T05:50:40.414Z,85.73
2019-01-09T05:53:06.773Z,85.06
2019-01-09T05:55:33.068Z,85.30
2019-01-09T05:57:59.382Z,85.66
2019-01-09T06:00:25.928Z,85.76
2019-01-09T06:02:52.513Z,85.92
2019-01-09T06:05:19.114Z,84.89
2019-01-09T06:07:45.471Z,85.21
2019-01-09T06:10:11.774Z,85.16
2019-01-09T06:12:39.393Z,85.68
2019-01-09T06:15:05.826Z,85.58
2019-01-09T06:17:32.150Z,86.54
2019-01-09T06:19:58.481Z,86.85
2019-01-09T06:22:25.068Z,86.15
2019-01-09T06:24:51.860Z,86.91
2019-01-09T06:27:18.486Z,86.31
2019-01-09T06:29:44.772Z,85.96
2019-01-09T06:32:11.457Z,85.96
2019-01-09T06:34:37.809Z,85.71
2019-01-09T06:37:04.969Z,85.16
2019-01-09T06:39:32.216Z,85.66
2019-01-09T06:41:58.558Z,85.96
2019-01-09T06:44:24.882Z,85.97
2019-01-09T06:46:51.209Z,86.32
2019-01-09T06:49:17.515Z,85.55
2019-01-09T06:51:44.075Z,85.94
2019-01-09T06:54:10.426Z,85.93
2019-01-09T06:56:36.945Z,85.37
2019-01-09T06:59:03.783Z,85.04
2019-01-09T07:01:30.178Z,85.11
2019-01-09T07:03:56.593Z,85.40
2019-01-09T07:06:22.901Z,86.43
2019-01-09T07:08:49.364Z,86.11
2019-01-09T07:11:15.937Z,85.80
2019-01-09T07:13:42.252Z,86.38
2019-01-09T07:16:08.838Z,85.51
2019-01-09T07:18:35.136Z,86.05
2019-01-09T07:21:01.449Z,86.22
2019-01-09T07:23:28.035Z,85.61
2019-01-09T07:25:54.601Z,85.31
2019-01-09T07:28:21.210Z,85.27
2019-01-09T07:30:47.871Z,85.55
2019-01-09T07:33:14.467Z,85.74
2019-01-09T07:35:40.782Z,85.57
2019-01-09T07:38:07.370Z,85.02
2019-01-09T07:40:33.681Z,84.68
2019-01-09T07:43:00.050Z,84.87
2019-01-09T07:45:26.350Z,84.81
2019-01-09T07:47:52.695Z,84.97
2019-01-09T07:50:19.198Z,85.05
2019-01-09T07:52:45.511Z,85.21
2019-01-09T07:55:11.882Z,86.13
2019-01-09T07:57:38.292Z,85.74
2019-01-09T08:00:09.361Z,84.92
2019-01-09T08:02:35.742Z,85.31
2019-01-09T08:05:02.104Z,84.65
2019-01-09T08:07:28.669Z,84.80
2019-01-09T08:09:55.006Z,85.25
2019-01-09T08:12:21.591Z,85.17
2019-01-09T08:14:47.903Z,85.78
2019-01-09T08:17:14.484Z,84.75
2019-01-09T08:19:40.799Z,84.76
2019-01-09T08:22:07.429Z,84.60
2019-01-09T08:24:34.098Z,84.99
2019-01-09T08:27:00.786Z,84.68
2019-01-09T08:29:27.372Z,84.38
2019-01-09T08:31:53.729Z,83.29
2019-01-09T08:34:20.259Z,82.61
2019-01-09T08:36:46.855Z,83.63
2019-01-09T08:39:13.189Z,83.87
2019-01-09T08:41:39.696Z,83.50
2019-01-09T08:44:06.304Z,83.38
2019-01-09T08:46:32.611Z,84.07
2019-01-09T08:48:58.918Z,83.09
2019-01-09T08:51:25.231Z,83.03
2019-01-09T08:53:51.824Z,84.11
2019-01-09T08:56:18.156Z,84.60
2019-01-09T08:58:44.762Z,84.19
2019-01-09T09:01:11.362Z,84.65
2019-01-09T09:03:38.769Z,84.30
2019-01-09T09:06:05.331Z,84.57
2019-01-09T09:08:32.170Z,84.60
2019-01-09T09:10:58.875Z,85.18
2019-01-09T09:13:33.857Z,85.56
2019-01-09T09:16:00.170Z,85.82
2019-01-09T09:18:26.748Z,85.57
2019-01-09T09:20:53.095Z,85.25
2019-01-09T09:23:19.428Z,85.39
2019-01-09T09:25:45.823Z,85.77
2019-01-09T09:28:12.371Z,84.93
2019-01-09T09:30:38.705Z,84.64
2019-01-09T09:33:05.031Z,84.17
2019-01-09T09:35:31.470Z,84.19
2019-01-09T09:37:57.869Z,84.11
2019-01-09T09:40:24.531Z,83.75
2019-01-09T09:42:50.866Z,83.43
2019-01-09T09:45:17.165Z,83.56
2019-01-09T09:47:43.493Z,83.63
2019-01-09T09:50:13.801Z,82.98
2019-01-09T09:52:40.411Z,82.62
2019-01-09T09:55:12.774Z,82.73
2019-01-09T09:57:35.615Z,82.95
2019-01-09T10:00:05.740Z,83.24
2019-01-09T10:02:32.420Z,83.87
2019-01-09T10:04:58.927Z,83.31
2019-01-09T10:07:25.335Z,83.90
2019-01-09T10:09:51.916Z,83.67
2019-01-09T10:12:18.493Z,83.43
2019-01-09T10:14:45.041Z,83.99
2019-01-09T10:17:11.392Z,83.25
2019-01-09T10:19:37.916Z,83.77
2019-01-09T10:22:04.507Z,82.75
2019-01-09T10:24:30.807Z,82.69
2019-01-09T10:26:57.134Z,82.52
2019-01-09T10:29:23.707Z,82.32
2019-01-09T10:31:50.364Z,82.95
2019-01-09T10:34:16.761Z,82.25
2019-01-09T10:36:43.351Z,82.36
2019-01-09T10:39:09.677Z,83.65
2019-01-09T10:41:36.302Z,83.47
2019-01-09T10:44:02.954Z,84.15
2019-01-09T10:46:29.579Z,84.02
2019-01-09T10:48:55.889Z,84.21
2019-01-09T10:51:22.421Z,85.03
2019-01-09T10:53:49.052Z,84.89
2019-01-09T10:56:15.479Z,84.99
2019-01-09T10:58:42.149Z,84.08
2019-01-09T11:01:08.717Z,84.41
2019-01-09T11:03:35.022Z,84.00
2019-01-09T11:06:01.782Z,82.95
2019-01-09T11:08:28.099Z,83.57
2019-01-09T11:10:54.400Z,83.54
2019-01-09T11:13:22.647Z,83.53
2019-01-09T11:15:49.188Z,83.23
2019-01-09T11:18:15.535Z,83.11
2019-01-09T11:20:41.848Z,83.99
2019-01-09T11:23:08.257Z,83.71
2019-01-09T11:25:34.579Z,85.49
2019-01-09T11:28:00.984Z,85.41
2019-01-09T11:30:27.379Z,85.56
2019-01-09T11:32:53.717Z,85.63
2019-01-09T11:35:22.648Z,85.13
2019-01-09T11:37:49.324Z,85.09
2019-01-09T11:40:17.831Z,84.70
2019-01-09T11:42:44.540Z,85.30
2019-01-09T11:45:14.640Z,84.25
2019-01-09T11:47:40.990Z,84.08
2019-01-09T11:50:10.493Z,85.26
2019-01-09T11:52:36.804Z,85.07
2019-01-09T11:55:07.546Z,85.39
2019-01-09T11:57:33.837Z,85.78
2019-01-09T12:00:00.278Z,85.85
2019-01-09T12:02:26.837Z,85.48
2019-01-09T12:04:53.190Z,85.43
2019-01-09T12:07:19.509Z,85.08
2019-01-09T12:09:46.150Z,85.30
2019-01-09T12:12:12.469Z,85.21
2019-01-09T12:14:39.027Z,85.38
2019-01-09T12:17:05.582Z,85.38
2019-01-09T12:19:31.903Z,85.74
2019-01-09T12:21:58.258Z,86.11
2019-01-09T12:24:24.579Z,85.74
2019-01-09T12:26:51.168Z,85.97
2019-01-09T12:29:17.477Z,85.76
2019-01-09T12:31:44.066Z,85.17
2019-01-09T12:34:10.381Z,85.35
2019-01-09T12:36:36.689Z,85.75
2019-01-09T12:39:13.032Z,85.88
2019-01-09T12:41:33.671Z,85.70
2019-01-09T12:43:59.927Z,85.86
2019-01-09T12:46:27.012Z,84.57
2019-01-09T12:48:53.620Z,84.62
2019-01-09T12:51:20.202Z,85.44
2019-01-09T12:53:46.787Z,86.45
2019-01-09T12:56:13.504Z,86.26
2019-01-09T12:58:39.807Z,85.63
2019-01-09T13:01:06.169Z,85.50
2019-01-09T13:03:32.486Z,85.74
2019-01-09T13:05:58.832Z,85.65
2019-01-09T13:08:25.186Z,85.37
2019-01-09T13:10:51.533Z,85.82
2019-01-09T13:13:17.837Z,85.51
2019-01-09T13:15:44.424Z,85.77
2019-01-09T13:18:10.985Z,85.81
2019-01-09T13:20:37.305Z,86.18
2019-01-09T13:23:03.641Z,86.65
2019-01-09T13:25:29.959Z,86.22
2019-01-09T13:27:56.549Z,86.82
2019-01-09T13:30:22.846Z,86.22
2019-01-09T13:32:49.172Z,86.06
2019-01-09T13:35:17.129Z,86.94
2019-01-09T13:37:43.642Z,86.62
2019-01-09T13:40:13.857Z,86.43
2019-01-09T13:42:40.189Z,86.31
2019-01-09T13:45:10.228Z,86.78
2019-01-09T13:47:38.497Z,86.77
2019-01-09T13:50:09.716Z,86.08
2019-01-09T13:52:36.104Z,86.70
2019-01-09T13:55:05.106Z,87.48
2019-01-09T13:57:31.416Z,87.50
2019-01-09T13:59:57.875Z,87.47
2019-01-09T14:02:24.206Z,86.97
2019-01-09T14:04:50.777Z,87.27
2019-01-09T14:07:17.401Z,87.27
2019-01-09T14:09:43.718Z,87.66
2019-01-09T14:12:10.062Z,87.35
2019-01-09T14:14:36.592Z,87.72
2019-01-09T14:17:04.878Z,87.36
2019-01-09T14:19:31.558Z,86.97
2019-01-09T14:21:58.198Z,86.58
2019-01-09T14:24:25.000Z,86.83
2019-01-09T14:26:51.306Z,86.86
2019-01-09T14:29:17.693Z,87.33
2019-01-09T14:31:44.257Z,87.76
2019-01-09T14:34:11.906Z,86.72
2019-01-09T14:36:39.026Z,86.52
2019-01-09T14:39:05.818Z,86.49
2019-01-09T14:41:32.352Z,86.22
2019-01-09T14:43:58.691Z,86.82
2019-01-09T14:46:25.781Z,86.29
2019-01-09T14:48:52.451Z,86.35
2019-01-09T14:51:19.022Z,86.53
2019-01-09T14:53:46.930Z,85.89
2019-01-09T14:56:14.445Z,86.18
2019-01-09T14:58:41.232Z,86.91
2019-01-09T15:01:07.689Z,86.52
2019-01-09T15:03:34.124Z,86.32
2019-01-09T15:06:00.491Z,86.46
2019-01-09T15:08:27.067Z,86.90
2019-01-09T15:10:53.529Z,86.83
2019-01-09T15:13:20.234Z,86.50
2019-01-09T15:15:46.677Z,86.70
2019-01-09T15:18:13.305Z,87.18
2019-01-09T15:20:39.701Z,86.83
2019-01-09T15:23:06.316Z,86.90
2019-01-09T15:25:32.873Z,86.85
2019-01-09T15:27:59.515Z,86.64
2019-01-09T15:30:28.711Z,86.68
2019-01-09T15:32:55.250Z,86.07
2019-01-09T15:35:21.841Z,85.87
2019-01-09T15:37:48.186Z,86.13
2019-01-09T15:40:18.495Z,86.46
2019-01-09T15:42:45.196Z,87.05
2019-01-09T15:45:12.801Z,86.70
2019-01-09T15:47:39.155Z,86.78
2019-01-09T15:50:16.120Z,86.62
2019-01-09T15:52:42.911Z,86.94
2019-01-09T15:55:15.126Z,86.44
2019-01-09T15:57:42.668Z,86.21
2019-01-09T16:00:24.830Z,86.47
2019-01-09T16:02:51.309Z,86.57
2019-01-09T16:05:17.778Z,86.25
2019-01-09T16:07:44.121Z,86.29
2019-01-09T16:10:16.493Z,86.08
2019-01-09T16:12:43.351Z,86.24
2019-01-09T16:15:13.860Z,86.09
2019-01-09T16:17:41.618Z,87.00
2019-01-09T16:20:16.934Z,86.57
2019-01-09T16:22:41.150Z,86.72
2019-01-09T16:25:11.818Z,86.21
2019-01-09T16:27:38.535Z,85.34
2019-01-09T16:30:34.056Z,85.32
2019-01-09T16:32:57.015Z,85.64
2019-01-09T16:35:23.398Z,85.89
2019-01-09T16:37:49.800Z,85.82
2019-01-09T16:40:23.360Z,86.44
2019-01-09T16:42:44.760Z,86.37
2019-01-09T16:45:13.200Z,86.28
2019-01-09T16:47:39.844Z,86.88
2019-01-09T16:50:11.875Z,86.78
2019-01-09T16:52:38.438Z,86.52
2019-01-09T16:55:07.632Z,86.60
2019-01-09T16:57:34.353Z,87.05
2019-01-09T17:00:01.010Z,87.21
2019-01-09T17:02:27.680Z,87.07
2019-01-09T17:04:54.018Z,85.99
2019-01-09T17:07:20.837Z,86.21
2019-01-09T17:09:47.215Z,86.91
2019-01-09T17:12:13.847Z,86.39
2019-01-09T17:14:40.212Z,86.71
2019-01-09T17:17:06.829Z,86.44
2019-01-09T17:19:33.287Z,87.00
2019-01-09T17:21:59.707Z,86.84
2019-01-09T17:24:26.039Z,86.29
2019-01-09T17:26:52.658Z,86.52
2019-01-09T17:29:19.591Z,86.37
2019-01-09T17:31:45.917Z,86.70
2019-01-09T17:34:12.666Z,86.56
2019-01-09T17:36:39.056Z,86.64
2019-01-09T17:39:06.514Z,85.94
2019-01-09T17:41:32.949Z,86.74
2019-01-09T17:43:59.561Z,86.79
2019-01-09T17:46:25.998Z,86.17
2019-01-09T17:48:52.403Z,86.90
2019-01-09T17:51:18.860Z,86.57
2019-01-09T17:53:45.456Z,86.79
2019-01-09T17:56:12.103Z,86.85
2019-01-09T17:58:38.676Z,86.69
2019-01-09T18:01:05.205Z,86.76
2019-01-09T18:03:31.914Z,86.42
2019-01-09T18:05:58.320Z,87.10
2019-01-09T18:08:25.128Z,86.96
2019-01-09T18:10:51.998Z,86.70
2019-01-09T18:13:18.402Z,86.79
2019-01-09T18:15:46.878Z,86.30
2019-01-09T18:18:13.313Z,86.06
2019-01-09T18:20:39.941Z,86.26
2019-01-09T18:23:06.662Z,87.05
2019-01-09T18:25:33.342Z,87.44
2019-01-09T18:27:59.741Z,87.49
2019-01-09T18:30:31.553Z,86.81
2019-01-09T18:33:08.834Z,86.90
2019-01-09T18:36:04.729Z,86.86
2019-01-09T18:38:42.706Z,86.17
2019-01-09T18:41:20.964Z,86.08
2019-01-09T18:43:56.164Z,86.37
2019-01-09T18:46:33.684Z,86.42
2019-01-09T18:49:40.507Z,86.55
2019-01-09T18:52:24.564Z,86.48
2019-01-09T18:54:51.012Z,86.72
2019-01-09T18:57:17.742Z,86.65
2019-01-09T18:59:44.636Z,86.48
2019-01-09T19:02:11.470Z,87.08
2019-01-09T19:04:39.993Z,86.86
2019-01-09T19:07:06.380Z,87.20
2019-01-09T19:09:32.901Z,87.38
2019-01-09T19:12:20.380Z,87.49
2019-01-09T19:14:57.539Z,87.33
2019-01-09T19:17:34.477Z,86.86
2019-01-09T19:20:04.338Z,87.66
2019-01-09T19:22:31.150Z,87.41
2019-01-09T19:24:57.774Z,87.40
2019-01-09T19:27:28.729Z,87.07
2019-01-09T19:29:56.365Z,87.25
2019-01-09T19:32:23.581Z,87.24
2019-01-09T19:35:03.209Z,87.57
2019-01-09T19:37:31.930Z,87.79
2019-01-09T19:40:08.765Z,88.27
2019-01-09T19:42:35.257Z,87.73
2019-01-09T19:45:03.647Z,87.04
2019-01-09T19:47:31.012Z,87.62
2019-01-09T19:49:57.871Z,87.67
2019-01-09T19:52:25.768Z,87.19
2019-01-09T19:54:52.579Z,86.85
2019-01-09T19:57:19.324Z,87.08
2019-01-09T19:59:45.707Z,87.21
2019-01-09T20:02:12.332Z,86.91
2019-01-09T20:04:39.340Z,86.32
2019-01-09T20:07:06.003Z,86.54
2019-01-09T20:09:32.410Z,86.61
2019-01-09T20:12:06.472Z,86.13
2019-01-09T20:14:48.545Z,85.74
2019-01-09T20:17:16.137Z,86.10
2019-01-09T20:19:42.965Z,86.60
2019-01-09T20:22:09.650Z,86.69
2019-01-09T20:24:35.982Z,86.76
2019-01-09T20:27:02.298Z,86.18
2019-01-09T20:29:29.126Z,85.89
2019-01-09T20:31:56.593Z,86.12
2019-01-09T20:34:22.997Z,85.43
2019-01-09T20:36:49.493Z,85.98
2019-01-09T20:39:15.934Z,85.56
2019-01-09T20:41:42.662Z,86.41
2019-01-09T20:44:09.414Z,85.99
2019-01-09T20:46:35.770Z,85.27
2019-01-09T20:49:02.313Z,85.57
2019-01-09T20:51:28.846Z,85.22
2019-01-09T20:53:55.468Z,85.34
2019-01-09T20:56:22.010Z,85.28
2019-01-09T20:58:48.462Z,84.54
2019-01-09T21:01:15.197Z,84.37
2019-01-09T21:03:41.760Z,84.23
2019-01-09T21:06:08.335Z,84.12
2019-01-09T21:08:34.676Z,84.80
2019-01-09T21:11:01.292Z,84.04
2019-01-09T21:13:28.165Z,84.24
2019-01-09T21:15:54.616Z,85.23
2019-01-09T21:18:21.031Z,85.03
2019-01-09T21:20:47.642Z,84.54
2019-01-09T21:23:13.978Z,85.70
2019-01-09T21:25:40.317Z,85.04
2019-01-09T21:28:06.994Z,84.99
2019-01-09T21:30:33.411Z,85.13
2019-01-09T21:33:00.043Z,84.46
2019-01-09T21:35:26.892Z,84.39
2019-01-09T21:37:53.322Z,84.21
2019-01-09T21:40:26.211Z,83.91
2019-01-09T21:42:52.803Z,84.00
2019-01-09T21:45:19.158Z,84.31
2019-01-09T21:47:45.933Z,83.76
2019-01-09T21:50:21.091Z,83.46
2019-01-09T21:52:47.802Z,83.84
2019-01-09T21:55:15.375Z,84.12
2019-01-09T21:57:42.205Z,83.96
2019-01-09T22:00:23.762Z,84.48
2019-01-09T22:02:50.438Z,84.02
2019-01-09T22:05:18.554Z,83.60
2019-01-09T22:07:46.391Z,83.22
2019-01-09T22:10:18.201Z,83.07
2019-01-09T22:12:45.027Z,83.66
2019-01-09T22:15:13.782Z,84.04
2019-01-09T22:17:40.569Z,83.88
2019-01-09T22:20:12.881Z,83.75
2019-01-09T22:22:39.582Z,83.79
2019-01-09T22:25:09.577Z,83.15
2019-01-09T22:27:36.373Z,83.05
2019-01-09T22:30:11.632Z,81.74
2019-01-09T22:32:38.238Z,81.54
2019-01-09T22:35:05.611Z,81.91
2019-01-09T22:37:32.006Z,81.44
2019-01-09T22:39:58.364Z,81.65
2019-01-09T22:42:24.682Z,80.23
2019-01-09T22:44:51.053Z,80.83
2019-01-09T22:47:17.471Z,80.30
2019-01-09T22:49:43.895Z,79.64
2019-01-09T22:52:10.235Z,80.58
2019-01-09T22:54:38.971Z,80.79
2019-01-09T22:57:05.304Z,80.38
2019-01-09T22:59:31.611Z,79.61
2019-01-09T23:01:57.929Z,79.69
2019-01-09T23:04:24.351Z,80.50
2019-01-09T23:06:51.052Z,80.33
2019-01-09T23:09:17.434Z,80.62
2019-01-09T23:11:43.944Z,80.23
2019-01-09T23:14:10.307Z,79.46
2019-01-09T23:16:36.914Z,79.75
2019-01-09T23:19:03.360Z,79.08
2019-01-09T23:21:29.685Z,78.61
2019-01-09T23:23:56.009Z,78.88
2019-01-09T23:26:22.695Z,78.87
2019-01-09T23:28:49.312Z,78.82
2019-01-09T23:31:15.838Z,78.78
2019-01-09T23:33:42.165Z,78.44
2019-01-09T23:36:08.600Z,77.70
2019-01-09T23:38:35.041Z,77.83
2019-01-09T23:41:01.374Z,77.64
2019-01-09T23:43:27.953Z,77.61
2019-01-09T23:45:54.379Z,78.68
2019-01-09T23:48:20.779Z,77.84
2019-01-09T23:50:47.135Z,77.91
2019-01-09T23:53:13.763Z,77.45
2019-01-09T23:55:40.587Z,78.11
2019-01-09T23:58:06.917Z,78.54
